createdAt,value
2023-03-31T00:01:13.195Z,99337.56
2023-03-31T00:04:05.632Z,99313.41
2023-03-31T00:06:54.374Z,99291.22
2023-03-31T00:09:41.943Z,99292.63
2023-03-31T00:12:26.716Z,99292.06
2023-03-31T00:15:11.593Z,99279.78
2023-03-31T00:18:00.559Z,99264.75
2023-03-31T00:20:46.437Z,99260.22
2023-03-31T00:23:31.762Z,99247.94
2023-03-31T00:26:16.668Z,99240.91
2023-03-31T00:29:01.832Z,99243.53
2023-03-31T00:31:47.165Z,99229.31
2023-03-31T00:34:32.473Z,99217.34
2023-03-31T00:37:17.531Z,99209.88
2023-03-31T00:40:06.370Z,99211.84
2023-03-31T00:42:52.074Z,99192.81
2023-03-31T00:45:37.546Z,99187.56
2023-03-31T00:48:24.150Z,99180.66
2023-03-31T00:51:09.349Z,99170.19
2023-03-31T00:53:59.865Z,99159.72
2023-03-31T00:56:48.237Z,99133.97
2023-03-31T00:59:38.664Z,99125.97
2023-03-31T01:02:26.900Z,99121.59
2023-03-31T01:05:12.014Z,99115.38
2023-03-31T01:07:59.661Z,99102.56
2023-03-31T01:10:51.422Z,99079.53
2023-03-31T01:13:39.565Z,99072.91
2023-03-31T01:16:24.753Z,99061.19
2023-03-31T01:19:21.191Z,99061.88
2023-03-31T01:22:45.893Z,99054.97
2023-03-31T01:25:52.750Z,99043.66
2023-03-31T01:28:53.037Z,99047.94
2023-03-31T01:32:16.449Z,99018.28
2023-03-31T01:35:31.464Z,99016.34
2023-03-31T01:38:52.049Z,98996.09
2023-03-31T01:42:21.699Z,98978.75
2023-03-31T01:45:29.266Z,98984.09
2023-03-31T01:48:21.272Z,98957.66
2023-03-31T01:51:14.194Z,98970.19
2023-03-31T01:54:27.593Z,98959.84
2023-03-31T01:57:18.156Z,98941.97
2023-03-31T02:00:11.460Z,98920.75
2023-03-31T02:03:17.790Z,98934.78
2023-03-31T02:06:11.397Z,98924.31
2023-03-31T02:09:04.944Z,98914.00
2023-03-31T02:11:51.848Z,98902.34
2023-03-31T02:14:41.125Z,98901.78
2023-03-31T02:17:32.688Z,98893.50
2023-03-31T02:20:21.465Z,98877.78
2023-03-31T02:23:06.545Z,98890.75
2023-03-31T02:25:56.360Z,98866.50
2023-03-31T02:28:41.478Z,98867.44
2023-03-31T02:32:03.034Z,98851.34
2023-03-31T02:34:48.810Z,98851.34
2023-03-31T02:37:34.300Z,98836.91
2023-03-31T02:40:22.883Z,98837.84
2023-03-31T02:43:08.069Z,98840.44
2023-03-31T02:45:53.460Z,98815.25
2023-03-31T02:48:48.324Z,98810.59
2023-03-31T02:51:48.745Z,98813.44
2023-03-31T02:55:32.351Z,98797.06
2023-03-31T02:58:31.653Z,98794.31
2023-03-31T03:01:36.642Z,98798.16
2023-03-31T03:04:25.685Z,98771.97
2023-03-31T03:07:10.920Z,98771.16
2023-03-31T03:10:23.881Z,98729.34
2023-03-31T03:13:21.267Z,98749.72
2023-03-31T03:16:19.194Z,98730.56
2023-03-31T03:19:07.060Z,98740.19
2023-03-31T03:21:52.428Z,98721.88
2023-03-31T03:24:37.550Z,98714.19
2023-03-31T03:27:22.869Z,98718.44
2023-03-31T03:30:10.214Z,98700.09
2023-03-31T03:32:56.102Z,98693.38
2023-03-31T03:35:41.636Z,98689.81
2023-03-31T03:38:26.441Z,98685.16
2023-03-31T03:41:11.422Z,98677.31
2023-03-31T03:43:56.595Z,98678.75
2023-03-31T03:46:41.437Z,98677.94
2023-03-31T03:49:26.604Z,98648.84
2023-03-31T03:52:11.861Z,98673.69
2023-03-31T03:54:57.195Z,98643.25
2023-03-31T03:57:42.020Z,98646.84
2023-03-31T04:00:27.127Z,98640.25
2023-03-31T04:03:12.845Z,98628.97
2023-03-31T04:05:58.008Z,98627.34
2023-03-31T04:08:43.289Z,98618.69
2023-03-31T04:11:28.302Z,98605.38
2023-03-31T04:14:13.638Z,98583.94
2023-03-31T04:16:58.675Z,98582.66
2023-03-31T04:19:43.981Z,98585.56
2023-03-31T04:22:34.870Z,98585.44
2023-03-31T04:25:19.863Z,98576.91
2023-03-31T04:28:07.024Z,98567.56
2023-03-31T04:30:55.333Z,98559.72
2023-03-31T04:33:40.591Z,98561.66
2023-03-31T04:36:25.601Z,98563.63
2023-03-31T04:39:13.501Z,98545.47
2023-03-31T04:41:59.758Z,98546.28
2023-03-31T04:44:44.894Z,98515.53
2023-03-31T04:47:29.866Z,98531.72
2023-03-31T04:50:17.033Z,98536.28
2023-03-31T04:53:02.978Z,98544.28
2023-03-31T04:55:49.124Z,98521.34
2023-03-31T04:58:34.461Z,98500.16
2023-03-31T05:01:19.787Z,98490.81
2023-03-31T05:04:05.518Z,98482.13
2023-03-31T05:06:51.168Z,98467.41
2023-03-31T05:09:36.033Z,98470.34
2023-03-31T05:12:20.953Z,98463.78
2023-03-31T05:15:07.373Z,98461.78
2023-03-31T05:17:53.493Z,98460.31
2023-03-31T05:20:39.143Z,98464.91
2023-03-31T05:23:24.028Z,98448.03
2023-03-31T05:26:09.685Z,98459.03
2023-03-31T05:28:54.792Z,98450.19
2023-03-31T05:31:40.313Z,98439.59
2023-03-31T05:34:25.545Z,98436.97
2023-03-31T05:37:10.587Z,98440.56
2023-03-31T05:39:55.635Z,98438.94
2023-03-31T05:42:41.929Z,98437.13
2023-03-31T05:45:27.080Z,98430.72
2023-03-31T05:48:12.424Z,98425.84
2023-03-31T05:50:59.073Z,98417.34
2023-03-31T05:53:44.263Z,98422.75
2023-03-31T05:56:29.479Z,98408.19
2023-03-31T05:59:15.381Z,98396.75
2023-03-31T06:02:00.772Z,98397.72
2023-03-31T06:04:46.006Z,98389.88
2023-03-31T06:07:31.602Z,98387.25
2023-03-31T06:10:16.832Z,98382.03
2023-03-31T06:13:02.176Z,98380.22
2023-03-31T06:15:57.923Z,98370.25
2023-03-31T06:18:43.538Z,98393.31
2023-03-31T06:21:28.564Z,98373.19
2023-03-31T06:24:13.742Z,98380.06
2023-03-31T06:27:00.881Z,98373.53
2023-03-31T06:29:45.750Z,98370.44
2023-03-31T06:32:30.678Z,98367.97
2023-03-31T06:35:15.542Z,98357.53
2023-03-31T06:38:00.602Z,98359.16
2023-03-31T06:40:45.551Z,98370.59
2023-03-31T06:43:30.913Z,98356.22
2023-03-31T06:46:16.576Z,98366.03
2023-03-31T06:49:01.996Z,98339.53
2023-03-31T06:51:47.244Z,98353.44
2023-03-31T06:54:32.427Z,98352.00
2023-03-31T06:57:17.739Z,98346.78
2023-03-31T07:00:05.699Z,98337.63
2023-03-31T07:02:51.213Z,98328.47
2023-03-31T07:05:36.392Z,98345.50
2023-03-31T07:08:21.790Z,98340.59
2023-03-31T07:11:07.116Z,98336.31
2023-03-31T07:13:52.410Z,98338.81
2023-03-31T07:16:37.652Z,98337.00
2023-03-31T07:19:22.997Z,98332.91
2023-03-31T07:22:09.067Z,98338.81
2023-03-31T07:24:53.978Z,98337.97
2023-03-31T07:27:39.100Z,98335.50
2023-03-31T07:30:24.665Z,98336.31
2023-03-31T07:33:10.189Z,98350.75
2023-03-31T07:36:10.136Z,98348.13
2023-03-31T07:38:58.135Z,98343.56
2023-03-31T07:41:43.259Z,98349.44
2023-03-31T07:44:28.122Z,98344.53
2023-03-31T07:47:13.327Z,98338.94
2023-03-31T07:49:58.657Z,98339.59
2023-03-31T07:52:46.698Z,98322.28
2023-03-31T07:55:32.292Z,98329.63
2023-03-31T07:58:17.390Z,98331.09
2023-03-31T08:01:03.566Z,98332.22
2023-03-31T08:03:48.934Z,98323.44
2023-03-31T08:06:34.047Z,98339.13
2023-03-31T08:09:19.762Z,98335.66
2023-03-31T08:12:06.009Z,98319.34
2023-03-31T08:14:51.623Z,98329.78
2023-03-31T08:17:37.211Z,98327.81
2023-03-31T08:20:22.177Z,98327.81
2023-03-31T08:23:09.258Z,98336.50
2023-03-31T08:25:54.417Z,98327.03
2023-03-31T08:28:40.091Z,98323.28
2023-03-31T08:31:27.472Z,98327.38
2023-03-31T08:34:12.922Z,98313.16
2023-03-31T08:36:58.101Z,98321.66
2023-03-31T08:39:43.328Z,98318.72
2023-03-31T08:42:50.138Z,98321.66
2023-03-31T08:45:39.298Z,98309.59
2023-03-31T08:48:32.572Z,98318.06
2023-03-31T08:51:24.835Z,98317.78
2023-03-31T08:54:17.589Z,98311.53
2023-03-31T08:57:06.191Z,98305.66
2023-03-31T08:59:52.546Z,98309.59
2023-03-31T09:02:50.079Z,98289.81
2023-03-31T09:06:12.544Z,98307.66
2023-03-31T09:09:01.761Z,98308.13
2023-03-31T09:11:56.614Z,98304.03
2023-03-31T09:14:51.335Z,98301.41
2023-03-31T09:17:45.848Z,98298.81
2023-03-31T09:20:39.399Z,98305.34
2023-03-31T09:23:33.854Z,98303.25
2023-03-31T09:26:53.467Z,98292.28
2023-03-31T09:29:59.914Z,98298.34
2023-03-31T09:32:47.726Z,98291.31
2023-03-31T09:35:33.799Z,98288.69
2023-03-31T09:38:18.979Z,98291.31
2023-03-31T09:41:05.390Z,98291.97
2023-03-31T09:43:51.415Z,98298.00
2023-03-31T09:46:38.461Z,98286.88
2023-03-31T09:49:28.250Z,98282.44
2023-03-31T09:52:32.314Z,98291.31
2023-03-31T09:55:39.753Z,98292.09
2023-03-31T09:58:25.517Z,98292.28
2023-03-31T10:01:13.169Z,98287.38
2023-03-31T10:03:58.506Z,98292.09
2023-03-31T10:06:43.723Z,98291.47
2023-03-31T10:09:34.265Z,98277.19
2023-03-31T10:12:24.372Z,98283.22
2023-03-31T10:15:21.244Z,98275.84
2023-03-31T10:18:06.543Z,98278.47
2023-03-31T10:20:52.968Z,98280.09
2023-03-31T10:23:37.914Z,98257.41
2023-03-31T10:26:27.142Z,98264.09
2023-03-31T10:29:15.696Z,98261.63
2023-03-31T10:32:09.065Z,98256.84
2023-03-31T10:34:56.674Z,98249.31
2023-03-31T10:37:41.705Z,98262.38
2023-03-31T10:40:29.297Z,98264.81
2023-03-31T10:43:18.096Z,98255.09
2023-03-31T10:46:04.378Z,98260.31
2023-03-31T10:48:51.396Z,98252.13
2023-03-31T10:51:36.579Z,98264.84
2023-03-31T10:54:21.876Z,98262.34
2023-03-31T10:57:07.496Z,98267.28
2023-03-31T11:00:30.164Z,98266.47
2023-03-31T11:03:36.944Z,98272.03
2023-03-31T11:06:31.457Z,98270.91
2023-03-31T11:09:47.042Z,98278.03
2023-03-31T11:12:44.658Z,98272.16
2023-03-31T11:15:35.754Z,98295.41
2023-03-31T11:19:12.146Z,98274.50
2023-03-31T11:22:00.933Z,98285.03
2023-03-31T11:25:05.910Z,98285.34
2023-03-31T11:28:03.404Z,98290.22
2023-03-31T11:31:06.198Z,98291.13
2023-03-31T11:33:57.096Z,98286.13
2023-03-31T11:36:50.686Z,98300.88
2023-03-31T11:39:52.575Z,98300.88
2023-03-31T11:42:51.808Z,98283.53
2023-03-31T11:45:49.721Z,98307.75
2023-03-31T11:49:01.491Z,98318.13
2023-03-31T11:51:55.869Z,98308.78
2023-03-31T11:54:56.065Z,98306.50
2023-03-31T11:57:53.083Z,98307.16
2023-03-31T12:00:46.746Z,98309.44
2023-03-31T12:03:44.274Z,98321.03
2023-03-31T12:06:39.979Z,98323.81
2023-03-31T12:09:28.112Z,98330.53
2023-03-31T12:12:19.890Z,98331.53
2023-03-31T12:15:16.858Z,98335.31
2023-03-31T12:18:13.327Z,98333.97
2023-03-31T12:21:03.360Z,98333.66
2023-03-31T12:23:48.713Z,98344.16
2023-03-31T12:26:49.075Z,98358.88
2023-03-31T12:29:37.967Z,98360.59
2023-03-31T12:32:32.537Z,98354.09
2023-03-31T12:35:24.074Z,98362.84
2023-03-31T12:38:24.596Z,98356.31
2023-03-31T12:41:24.384Z,98352.41
2023-03-31T12:44:37.834Z,98364.34
2023-03-31T12:47:38.094Z,98359.47
2023-03-31T12:50:52.769Z,98361.72
2023-03-31T12:53:57.327Z,98373.53
2023-03-31T12:57:05.590Z,98383.94
2023-03-31T13:00:26.871Z,98385.22
2023-03-31T13:03:49.209Z,98389.75
2023-03-31T13:06:34.245Z,98389.13
2023-03-31T13:09:19.360Z,98400.44
2023-03-31T13:12:09.597Z,98398.09
2023-03-31T13:14:59.926Z,98410.78
2023-03-31T13:17:59.458Z,98412.19
2023-03-31T13:20:46.190Z,98419.00
2023-03-31T13:23:35.437Z,98408.81
2023-03-31T13:26:32.892Z,98419.06
2023-03-31T13:29:24.464Z,98423.78
2023-03-31T13:32:29.832Z,98416.00
2023-03-31T13:35:24.503Z,98434.00
2023-03-31T13:38:51.249Z,98427.66
2023-03-31T13:42:13.419Z,98432.88
2023-03-31T13:45:18.855Z,98438.38
2023-03-31T13:48:24.230Z,98434.81
2023-03-31T13:51:17.897Z,98438.13
2023-03-31T13:54:18.818Z,98453.78
2023-03-31T13:57:31.820Z,98464.59
2023-03-31T14:00:27.248Z,98458.13
2023-03-31T14:03:27.828Z,98489.66
2023-03-31T14:06:26.661Z,98496.66
2023-03-31T14:09:36.495Z,98488.03
2023-03-31T14:12:37.985Z,98490.03
2023-03-31T14:15:23.077Z,98486.63
2023-03-31T14:18:12.997Z,98499.59
2023-03-31T14:21:34.898Z,98507.28
2023-03-31T14:25:01.183Z,98513.38
2023-03-31T14:28:13.818Z,98513.72
2023-03-31T14:31:20.439Z,98531.19
2023-03-31T14:34:52.395Z,98526.56
2023-03-31T14:37:37.375Z,98537.91
2023-03-31T14:40:23.192Z,98543.50
2023-03-31T14:43:18.710Z,98539.13
2023-03-31T14:46:07.077Z,98558.97
2023-03-31T14:48:52.613Z,98561.94
2023-03-31T14:51:43.945Z,98551.94
2023-03-31T14:54:37.748Z,98576.06
2023-03-31T14:57:29.934Z,98555.56
2023-03-31T15:00:21.803Z,98587.06
2023-03-31T15:03:13.805Z,98584.09
2023-03-31T15:06:02.816Z,98597.22
2023-03-31T15:08:47.811Z,98598.03
2023-03-31T15:11:33.094Z,98598.38
2023-03-31T15:14:20.693Z,98603.13
2023-03-31T15:17:06.118Z,98601.00
2023-03-31T15:19:59.966Z,98610.34
2023-03-31T15:22:44.997Z,98602.13
2023-03-31T15:25:41.236Z,98607.56
2023-03-31T15:28:32.282Z,98625.06
2023-03-31T15:31:18.815Z,98624.44
2023-03-31T15:34:34.679Z,98629.34
2023-03-31T15:37:28.734Z,98638.97
2023-03-31T15:40:30.544Z,98647.34
2023-03-31T15:43:25.879Z,98645.34
2023-03-31T15:46:18.803Z,98642.25
2023-03-31T15:49:05.880Z,98646.34
2023-03-31T15:51:53.174Z,98651.25
2023-03-31T15:54:41.395Z,98671.91
2023-03-31T15:57:35.009Z,98669.59
2023-03-31T16:00:46.652Z,98676.78
2023-03-31T16:03:38.439Z,98684.63
2023-03-31T16:06:26.710Z,98695.63
2023-03-31T16:09:17.616Z,98696.44
2023-03-31T16:12:05.432Z,98691.97
2023-03-31T16:14:56.668Z,98707.69
2023-03-31T16:17:49.050Z,98715.38
2023-03-31T16:20:45.795Z,98725.06
2023-03-31T16:23:34.241Z,98709.19
2023-03-31T16:26:24.257Z,98712.44
2023-03-31T16:29:09.520Z,98717.97
2023-03-31T16:32:15.401Z,98722.22
2023-03-31T16:35:03.093Z,98725.78
2023-03-31T16:37:48.015Z,98757.03
2023-03-31T16:40:42.569Z,98748.81
2023-03-31T16:43:31.506Z,98768.16
2023-03-31T16:46:16.485Z,98760.56
2023-03-31T16:49:01.594Z,98763.50
2023-03-31T16:51:46.917Z,98771.53
2023-03-31T16:54:32.595Z,98769.22
2023-03-31T16:57:17.918Z,98765.94
2023-03-31T17:00:03.849Z,98776.09
2023-03-31T17:02:49.379Z,98786.56
2023-03-31T17:05:43.800Z,98789.50
2023-03-31T17:08:28.725Z,98796.38
2023-03-31T17:11:14.667Z,98810.22
2023-03-31T17:14:00.351Z,98804.47
2023-03-31T17:19:50.601Z,98816.28
2023-03-31T17:22:36.380Z,98820.50
2023-03-31T17:25:21.996Z,98835.53
2023-03-31T17:28:06.960Z,98841.16
2023-03-31T17:30:52.229Z,98836.25
2023-03-31T17:33:37.512Z,98835.88
2023-03-31T17:36:22.572Z,98852.25
2023-03-31T17:39:07.541Z,98858.91
2023-03-31T17:41:52.406Z,98864.13
2023-03-31T17:44:37.745Z,98869.75
2023-03-31T17:47:22.867Z,98868.25
2023-03-31T17:50:08.899Z,98869.88
2023-03-31T17:52:55.683Z,98874.00
2023-03-31T17:55:40.886Z,98872.69
2023-03-31T17:58:27.042Z,98874.31
2023-03-31T18:01:13.517Z,98873.31
2023-03-31T18:03:59.451Z,98882.16
2023-03-31T18:06:44.959Z,98874.59
2023-03-31T18:09:31.348Z,98887.25
2023-03-31T18:12:16.732Z,98887.25
2023-03-31T18:15:04.024Z,98895.56
2023-03-31T18:17:48.972Z,98899.16
2023-03-31T18:20:34.231Z,98909.75
2023-03-31T18:23:20.181Z,98923.97
2023-03-31T18:26:10.874Z,98917.09
2023-03-31T18:28:55.942Z,98927.69
2023-03-31T18:31:41.788Z,98938.69
2023-03-31T18:34:27.835Z,98930.19
2023-03-31T18:37:13.308Z,98935.84
2023-03-31T18:39:58.610Z,98940.41
2023-03-31T18:42:43.726Z,98938.59
2023-03-31T18:45:30.621Z,98956.25
2023-03-31T18:48:17.881Z,98964.25
2023-03-31T18:51:04.463Z,98963.41
2023-03-31T18:53:49.441Z,98974.03
2023-03-31T18:56:34.297Z,98981.06
2023-03-31T18:59:19.547Z,98993.16
2023-03-31T19:02:04.710Z,98994.00
2023-03-31T19:04:49.854Z,98990.44
2023-03-31T19:07:35.814Z,99002.00
2023-03-31T19:10:20.886Z,99013.56
2023-03-31T19:13:06.450Z,99020.06
2023-03-31T19:15:51.484Z,99015.66
2023-03-31T19:18:37.501Z,99017.72
2023-03-31T19:21:22.946Z,99028.19
2023-03-31T19:24:09.200Z,99027.22
2023-03-31T19:26:56.542Z,99026.25
2023-03-31T19:29:41.674Z,99021.59
2023-03-31T19:32:27.201Z,99038.66
2023-03-31T19:35:12.524Z,99027.66
2023-03-31T19:37:57.730Z,99034.41
2023-03-31T19:40:43.132Z,99038.69
2023-03-31T19:43:29.585Z,99046.53
2023-03-31T19:46:16.115Z,99051.34
2023-03-31T19:49:01.447Z,99053.94
2023-03-31T19:51:46.657Z,99066.91
2023-03-31T19:54:32.186Z,99056.31
2023-03-31T19:57:17.164Z,99074.34
2023-03-31T20:00:04.908Z,99082.06
2023-03-31T20:02:50.640Z,99088.81
2023-03-31T20:05:35.991Z,99091.03
2023-03-31T20:08:21.206Z,99092.66
2023-03-31T20:11:09.800Z,99091.97
2023-03-31T20:13:56.167Z,99100.66
2023-03-31T20:16:41.670Z,99087.59
2023-03-31T20:19:27.759Z,99107.81
2023-03-31T20:22:13.121Z,99114.41
2023-03-31T20:24:58.357Z,99115.25
2023-03-31T20:27:43.671Z,99108.63
2023-03-31T20:30:28.615Z,99125.84
2023-03-31T20:33:13.501Z,99115.78
2023-03-31T20:36:13.526Z,99130.66
2023-03-31T20:39:00.270Z,99123.94
2023-03-31T20:41:45.879Z,99144.97
2023-03-31T20:44:30.802Z,99137.28
2023-03-31T20:47:15.839Z,99140.84
2023-03-31T20:50:01.620Z,99128.19
2023-03-31T20:52:47.649Z,99153.53
2023-03-31T20:55:32.935Z,99155.97
2023-03-31T20:58:18.606Z,99156.53
2023-03-31T21:01:05.010Z,99168.25
2023-03-31T21:03:50.247Z,99168.41
2023-03-31T21:06:41.907Z,99176.09
2023-03-31T21:09:27.239Z,99178.03
2023-03-31T21:12:12.249Z,99181.59
2023-03-31T21:14:57.228Z,99184.50
2023-03-31T21:17:42.648Z,99182.84
2023-03-31T21:20:27.819Z,99201.16
2023-03-31T21:23:12.721Z,99209.56
2023-03-31T21:26:00.248Z,99210.69
2023-03-31T21:28:46.332Z,99201.84
2023-03-31T21:31:31.813Z,99219.06
2023-03-31T21:34:17.148Z,99226.09
2023-03-31T21:37:02.377Z,99238.88
2023-03-31T21:39:47.663Z,99232.00
2023-03-31T21:42:36.295Z,99237.78
2023-03-31T21:45:21.834Z,99243.84
2023-03-31T21:48:09.384Z,99255.16
2023-03-31T21:50:55.273Z,99258.31
2023-03-31T21:53:40.806Z,99259.00
2023-03-31T21:56:28.350Z,99257.63
2023-03-31T21:59:17.363Z,99264.91
2023-03-31T22:02:02.488Z,99259.53
2023-03-31T22:04:47.658Z,99279.94
2023-03-31T22:07:32.949Z,99268.09
2023-03-31T22:10:18.292Z,99277.75
2023-03-31T22:13:03.568Z,99279.50
2023-03-31T22:15:48.739Z,99280.47
2023-03-31T22:18:33.895Z,99291.94
2023-03-31T22:21:22.122Z,99280.88
2023-03-31T22:24:11.602Z,99308.16
2023-03-31T22:26:56.890Z,99313.28
2023-03-31T22:29:41.974Z,99320.16
2023-03-31T22:32:27.573Z,99322.78
2023-03-31T22:35:13.010Z,99331.16
2023-03-31T22:37:58.118Z,99325.94
2023-03-31T22:40:43.192Z,99326.78
2023-03-31T22:43:29.059Z,99333.78
2023-03-31T22:46:15.033Z,99346.06
2023-03-31T22:49:00.269Z,99354.63
2023-03-31T22:51:45.277Z,99354.63
2023-03-31T22:54:30.594Z,99355.97
2023-03-31T22:57:16.965Z,99369.75
2023-03-31T23:00:02.089Z,99362.56
2023-03-31T23:02:47.468Z,99372.22
2023-03-31T23:05:34.373Z,99388.47
2023-03-31T23:08:19.682Z,99394.56
2023-03-31T23:11:08.178Z,99396.59
2023-03-31T23:13:53.287Z,99414.09
2023-03-31T23:16:38.515Z,99410.66
2023-03-31T23:19:24.209Z,99420.03
2023-03-31T23:22:09.811Z,99417.25
2023-03-31T23:24:54.905Z,99429.13
2023-03-31T23:27:39.939Z,99436.16
2023-03-31T23:30:25.634Z,99440.97
2023-03-31T23:33:10.931Z,99434.22
2023-03-31T23:36:02.409Z,99438.75
2023-03-31T23:38:49.462Z,99457.38
2023-03-31T23:41:34.708Z,99444.81
2023-03-31T23:44:19.685Z,99460.13
2023-03-31T23:47:05.939Z,99467.00
2023-03-31T23:49:51.120Z,99460.66
2023-03-31T23:52:36.356Z,99468.13
2023-03-31T23:55:22.137Z,99475.81
2023-03-31T23:58:07.785Z,99473.75
